Time;durP1;ratioP1;P1;durP2;ratioP2;P2;SDS_P1;SDS_P2;PMS_P1;PMS_P2;Temp;Humidity;BMP_temperature;BMP_pressure;BME280_temperature;BME280_humidity;BME280_pressure;Samples;Min_cycle;Max_cycle;Signal;HPM_P1;HPM_P2
2020/12/20 00:00:10;;;;;;;72.28;36.05;;;8.20;99.90;;;;;;5001762;28;20409;-55
2020/12/20 00:02:36;;;;;;;67.75;34.45;;;8.20;99.90;;;;;;4991591;28;20027;-54
2020/12/20 00:05:06;;;;;;;75.70;36.92;;;8.20;99.90;;;;;;4988826;28;20084;-55
2020/12/20 00:07:32;;;;;;;76.53;36.63;;;8.20;99.90;;;;;;4982556;28;20031;-54
2020/12/20 00:09:58;;;;;;;87.60;40.80;;;8.20;99.90;;;;;;4971975;28;20031;-57
2020/12/20 00:12:24;;;;;;;87.97;41.17;;;8.20;99.90;;;;;;5001119;28;20045;-56
2020/12/20 00:14:50;;;;;;;73.53;37.20;;;8.20;99.90;;;;;;4988044;28;20061;-57
2020/12/20 00:17:16;;;;;;;78.18;38.95;;;8.20;99.90;;;;;;4996124;28;20481;-53
2020/12/20 00:19:42;;;;;;;76.38;37.38;;;8.20;99.90;;;;;;5008764;28;20038;-56
2020/12/20 00:22:11;;;;;;;81.43;36.47;;;8.20;99.90;;;;;;4990113;28;20038;-56
2020/12/20 00:24:37;;;;;;;74.18;36.67;;;8.20;99.90;;;;;;4989121;28;20049;-52
2020/12/20 00:27:05;;;;;;;68.50;35.70;;;8.20;99.90;;;;;;5002072;28;20065;-57
2020/12/20 00:29:32;;;;;;;80.72;38.13;;;8.20;99.90;;;;;;5008900;28;20114;-55
2020/12/20 00:32:02;;;;;;;86.90;40.65;;;8.20;99.90;;;;;;4996687;28;20061;-48
2020/12/20 00:34:28;;;;;;;87.95;41.20;;;8.20;99.90;;;;;;4989608;28;20089;-55
2020/12/20 00:36:54;;;;;;;80.88;38.78;;;8.20;99.90;;;;;;4989255;28;20030;-52
2020/12/20 00:39:20;;;;;;;92.75;41.42;;;8.20;99.90;;;;;;4988309;28;20066;-55
2020/12/20 00:41:51;;;;;;;90.75;42.03;;;8.20;99.90;;;;;;4990422;28;20088;-53
2020/12/20 00:44:17;;;;;;;93.65;41.20;;;8.20;99.90;;;;;;5008850;28;20501;-55
2020/12/20 00:46:43;;;;;;;89.40;39.95;;;8.10;99.90;;;;;;5006871;28;20108;-49
2020/12/20 00:49:09;;;;;;;79.88;39.83;;;8.10;99.90;;;;;;5007014;28;20518;-53
2020/12/20 00:51:35;;;;;;;89.72;39.17;;;8.20;99.90;;;;;;5003545;28;20137;-56
2020/12/20 00:54:01;;;;;;;86.55;40.42;;;8.20;99.90;;;;;;4988712;28;20113;-53
2020/12/20 00:56:27;;;;;;;84.65;40.55;;;8.20;99.90;;;;;;5004715;28;20584;-56
2020/12/20 00:58:53;;;;;;;88.85;41.40;;;8.20;99.90;;;;;;5008679;28;20120;-56
2020/12/20 01:01:23;;;;;;;88.55;39.80;;;8.20;99.90;;;;;;5006942;28;20100;-55
2020/12/20 01:03:48;;;;;;;88.47;40.45;;;8.20;99.90;;;;;;4990259;28;20038;-49
2020/12/20 01:06:17;;;;;;;85.05;40.10;;;8.20;99.90;;;;;;4989300;28;20038;-56
2020/12/20 01:08:43;;;;;;;90.70;40.72;;;8.20;99.90;;;;;;4988912;28;20045;-55
2020/12/20 01:11:09;;;;;;;85.35;41.85;;;8.20;99.90;;;;;;4989076;28;20126;-55
2020/12/20 01:13:36;;;;;;;92.10;43.72;;;8.20;99.90;;;;;;4988061;28;20093;-52
2020/12/20 01:16:02;;;;;;;101.72;44.33;;;8.20;99.90;;;;;;4988959;28;20437;-53
2020/12/20 01:18:28;;;;;;;94.05;45.17;;;8.20;99.90;;;;;;5003986;28;20401;-55
2020/12/20 01:20:54;;;;;;;89.15;42.38;;;8.20;99.90;;;;;;5008447;28;20044;-57
2020/12/20 01:23:20;;;;;;;69.93;38.17;;;8.30;99.90;;;;;;4990787;28;20054;-53
2020/12/20 01:25:45;;;;;;;84.93;39.92;;;8.30;99.90;;;;;;4988970;28;20557;-56
2020/12/20 01:28:11;;;;;;;84.05;40.53;;;8.20;99.90;;;;;;4993566;28;20109;-53
2020/12/20 01:30:37;;;;;;;84.03;41.00;;;8.20;99.90;;;;;;5006972;28;20508;-57
2020/12/20 01:33:03;;;;;;;90.82;41.38;;;8.20;99.90;;;;;;5006815;28;20515;-53
2020/12/20 01:35:28;;;;;;;92.25;41.92;;;8.20;99.90;;;;;;5002524;28;20072;-57
2020/12/20 01:37:54;;;;;;;94.70;42.05;;;8.10;99.90;;;;;;4992492;28;20073;-51
2020/12/20 01:40:20;;;;;;;85.70;39.35;;;8.10;99.90;;;;;;4990754;28;20054;-56
2020/12/20 01:42:53;;;;;;;81.57;38.88;;;8.10;99.90;;;;;;4991570;28;20041;-56
2020/12/20 01:45:19;;;;;;;97.68;41.35;;;8.10;99.90;;;;;;4992460;28;20453;-52
2020/12/20 01:47:45;;;;;;;79.93;38.05;;;8.10;99.90;;;;;;4995655;28;20030;-57
2020/12/20 01:50:11;;;;;;;76.63;37.40;;;8.10;99.90;;;;;;5010508;28;20033;-55
2020/12/20 01:52:37;;;;;;;74.45;34.50;;;8.10;99.90;;;;;;5007683;28;20026;-56
2020/12/20 01:55:03;;;;;;;80.43;37.00;;;8.10;99.90;;;;;;4992171;28;20545;-57
2020/12/20 01:57:29;;;;;;;85.07;38.10;;;8.10;99.90;;;;;;4991201;28;20057;-52
2020/12/20 01:59:56;;;;;;;75.63;35.88;;;8.00;99.90;;;;;;4992398;28;20414;-54
2020/12/20 02:02:22;;;;;;;84.25;36.42;;;8.10;99.90;;;;;;4990177;28;20052;-55
2020/12/20 02:04:48;;;;;;;81.25;36.67;;;8.10;99.90;;;;;;4992183;28;20121;-55
2020/12/20 02:07:14;;;;;;;85.40;36.78;;;8.10;99.90;;;;;;4990935;28;20034;-55
2020/12/20 02:09:40;;;;;;;82.75;37.80;;;8.10;99.90;;;;;;4992085;28;20041;-54
2020/12/20 02:12:07;;;;;;;86.60;37.08;;;8.10;99.90;;;;;;4993558;28;20462;-55
2020/12/20 02:14:33;;;;;;;85.88;39.05;;;8.10;99.90;;;;;;5011295;28;20049;-57
2020/12/20 02:16:59;;;;;;;94.55;41.15;;;8.10;99.90;;;;;;5008257;28;20026;-56
2020/12/20 02:19:25;;;;;;;103.35;42.47;;;8.10;99.90;;;;;;4991888;28;20046;-57
2020/12/20 02:21:52;;;;;;;87.97;40.17;;;8.10;99.90;;;;;;4991357;28;20194;-57
2020/12/20 02:24:18;;;;;;;101.80;42.42;;;8.10;99.90;;;;;;4991683;28;20057;-55
2020/12/20 02:26:44;;;;;;;95.13;40.67;;;8.10;99.90;;;;;;4991543;28;20154;-54
2020/12/20 02:29:10;;;;;;;94.25;40.47;;;8.10;99.90;;;;;;4990474;28;20094;-58
2020/12/20 02:31:36;;;;;;;93.53;41.53;;;8.10;99.90;;;;;;4992307;28;20210;-53
2020/12/20 02:34:03;;;;;;;97.80;41.28;;;8.10;99.90;;;;;;4991907;28;20490;-57
2020/12/20 02:36:29;;;;;;;86.65;39.03;;;8.20;99.90;;;;;;4996291;28;20116;-53
2020/12/20 02:38:56;;;;;;;93.38;38.35;;;8.20;99.90;;;;;;5011295;28;20040;-54
2020/12/20 02:41:21;;;;;;;84.28;38.30;;;8.10;99.90;;;;;;5003976;28;20026;-57
2020/12/20 02:43:48;;;;;;;87.38;39.20;;;8.10;99.90;;;;;;5008817;28;20093;-55
2020/12/20 02:46:16;;;;;;;83.25;38.35;;;8.10;99.90;;;;;;5005764;28;20464;-51
2020/12/20 02:48:43;;;;;;;85.63;38.35;;;8.10;99.90;;;;;;4972023;28;20041;-56
2020/12/20 02:51:09;;;;;;;93.75;39.33;;;8.10;99.90;;;;;;4989108;28;20541;-55
2020/12/20 02:53:35;;;;;;;85.10;38.15;;;8.10;99.90;;;;;;4989625;28;20033;-54
2020/12/20 02:56:01;;;;;;;89.75;41.72;;;8.10;99.90;;;;;;5006250;28;20034;-53
2020/12/20 02:58:27;;;;;;;93.50;41.38;;;8.10;99.90;;;;;;5005904;28;20034;-53
2020/12/20 03:03:28;;;;;;;95.78;41.13;;;8.00;99.90;;;;;;5123556;22;20068;-53
2020/12/20 03:05:53;;;;;;;98.00;41.47;;;8.00;99.90;;;;;;5069178;28;20170;-58
2020/12/20 03:08:19;;;;;;;92.53;43.35;;;8.00;99.90;;;;;;5070324;28;20036;-52
2020/12/20 03:10:45;;;;;;;98.07;44.22;;;8.10;99.90;;;;;;5068940;28;20031;-51
2020/12/20 03:13:11;;;;;;;87.93;41.90;;;8.10;99.90;;;;;;5065929;28;20093;-56
2020/12/20 03:15:41;;;;;;;87.97;40.55;;;8.10;99.90;;;;;;5068043;28;20079;-53
2020/12/20 03:18:07;;;;;;;85.53;41.97;;;8.10;99.90;;;;;;5069905;28;20468;-58
2020/12/20 03:20:33;;;;;;;85.80;41.22;;;8.10;99.90;;;;;;5068819;28;20399;-57
2020/12/20 03:22:59;;;;;;;87.55;42.20;;;8.10;99.90;;;;;;5067786;28;20032;-55
2020/12/20 03:25:25;;;;;;;88.50;40.63;;;8.20;99.90;;;;;;5069555;28;20038;-52
2020/12/20 03:27:51;;;;;;;93.88;43.28;;;8.10;99.90;;;;;;5069046;28;20036;-50
2020/12/20 03:30:17;;;;;;;87.85;41.65;;;8.10;99.90;;;;;;5069517;28;20530;-59
2020/12/20 03:32:43;;;;;;;87.53;43.70;;;8.10;99.90;;;;;;5067593;28;20066;-54
2020/12/20 03:35:08;;;;;;;84.78;41.95;;;8.10;99.90;;;;;;5068581;28;20075;-51
2020/12/20 03:37:35;;;;;;;91.20;41.70;;;8.10;99.90;;;;;;5067741;28;20472;-51
2020/12/20 03:40:02;;;;;;;85.57;40.53;;;8.10;99.90;;;;;;5069464;28;20028;-52
2020/12/20 03:42:28;;;;;;;85.18;41.22;;;8.10;99.90;;;;;;5068338;28;20024;-54
2020/12/20 03:44:54;;;;;;;79.50;38.65;;;8.10;99.90;;;;;;5069179;28;20450;-56
2020/12/20 03:47:21;;;;;;;102.35;42.67;;;8.10;99.90;;;;;;5068267;28;20027;-56
2020/12/20 03:49:46;;;;;;;69.38;35.45;;;8.10;99.90;;;;;;5068148;28;20029;-52
2020/12/20 03:52:12;;;;;;;80.57;38.17;;;8.10;99.90;;;;;;5068081;28;20175;-52
2020/12/20 03:54:38;;;;;;;83.03;37.22;;;8.00;99.90;;;;;;5051176;28;20526;-50
2020/12/20 03:57:04;;;;;;;84.72;39.00;;;8.00;99.90;;;;;;5067240;28;20044;-56
2020/12/20 03:59:29;;;;;;;85.50;37.72;;;8.00;99.90;;;;;;5068117;28;20036;-56
2020/12/20 04:01:55;;;;;;;97.82;41.00;;;8.00;99.90;;;;;;5068311;28;20044;-56
2020/12/20 04:04:21;;;;;;;92.65;41.28;;;8.00;99.90;;;;;;5068662;28;20052;-53
2020/12/20 04:06:46;;;;;;;87.05;41.35;;;8.00;99.90;;;;;;5068973;28;20218;-57
2020/12/20 04:09:12;;;;;;;89.97;40.85;;;8.00;99.90;;;;;;5067903;28;20028;-58
2020/12/20 04:11:38;;;;;;;95.93;41.95;;;8.10;99.90;;;;;;5068688;28;20031;-51
2020/12/20 04:14:04;;;;;;;92.15;40.75;;;8.10;99.90;;;;;;5068139;28;20400;-55
2020/12/20 04:16:30;;;;;;;90.10;38.78;;;8.10;99.90;;;;;;5068689;28;20396;-55
2020/12/20 04:18:55;;;;;;;88.97;39.90;;;8.10;99.90;;;;;;5067784;28;20110;-56
2020/12/20 04:21:21;;;;;;;95.85;40.13;;;8.20;99.90;;;;;;5068906;28;20029;-58
2020/12/20 04:23:47;;;;;;;86.90;39.55;;;8.20;99.90;;;;;;5065702;28;20452;-56
2020/12/20 04:26:12;;;;;;;87.32;40.40;;;8.20;99.90;;;;;;5068548;28;20509;-54
2020/12/20 04:28:38;;;;;;;94.50;41.42;;;8.30;99.90;;;;;;5066981;28;20207;-56
2020/12/20 04:31:04;;;;;;;98.18;42.67;;;8.30;99.90;;;;;;5069013;28;20078;-55
2020/12/20 04:33:30;;;;;;;96.07;39.63;;;8.30;99.90;;;;;;5065619;28;20043;-57
2020/12/20 04:35:55;;;;;;;90.38;41.22;;;8.30;99.90;;;;;;5067690;28;20131;-53
2020/12/20 04:38:21;;;;;;;92.65;40.40;;;8.40;99.90;;;;;;5067453;28;20304;-49
2020/12/20 04:40:48;;;;;;;93.30;41.35;;;8.40;99.90;;;;;;5068337;28;20034;-55
2020/12/20 04:43:14;;;;;;;90.97;38.95;;;8.30;99.90;;;;;;5066521;28;20033;-53
2020/12/20 04:45:43;;;;;;;95.28;41.00;;;8.40;99.90;;;;;;5068456;28;20121;-60
2020/12/20 04:48:10;;;;;;;90.45;39.03;;;8.30;99.90;;;;;;5067583;28;20496;-56
2020/12/20 04:50:39;;;;;;;82.70;37.33;;;8.30;99.90;;;;;;5067550;28;20117;-55
2020/12/20 04:53:05;;;;;;;85.40;35.50;;;8.30;99.90;;;;;;5067671;28;20060;-56
2020/12/20 04:55:31;;;;;;;84.45;38.15;;;8.30;99.90;;;;;;5068244;28;20032;-53
2020/12/20 04:57:57;;;;;;;84.65;39.40;;;8.20;99.90;;;;;;5067571;28;20391;-54
2020/12/20 05:00:23;;;;;;;95.80;39.78;;;8.30;99.90;;;;;;5068570;28;20032;-58
2020/12/20 05:02:49;;;;;;;89.82;39.10;;;8.20;99.90;;;;;;5067150;28;20059;-54
2020/12/20 05:05:14;;;;;;;96.03;42.00;;;8.20;99.90;;;;;;5068314;28;20114;-55
2020/12/20 05:07:43;;;;;;;96.15;43.20;;;8.20;99.90;;;;;;5068123;28;20040;-54
2020/12/20 05:10:09;;;;;;;92.90;42.03;;;8.20;99.90;;;;;;5072193;28;20039;-52
2020/12/20 05:12:36;;;;;;;98.10;41.03;;;8.20;99.90;;;;;;5071030;28;20033;-52
2020/12/20 05:15:25;;;;;;;99.38;43.42;;;8.20;99.90;;;;;;5072139;28;20029;-52
2020/12/20 05:18:08;;;;;;;91.05;39.40;;;8.20;99.90;;;;;;5070679;28;20360;-53
2020/12/20 05:20:47;;;;;;;87.38;39.30;;;8.30;99.90;;;;;;5072694;28;20032;-56
2020/12/20 05:23:14;;;;;;;91.07;37.92;;;8.30;99.90;;;;;;5070723;28;20036;-54
2020/12/20 05:26:35;;;;;;;86.45;36.72;;;8.30;99.90;;;;;;5071937;28;20039;-57
2020/12/20 05:29:09;;;;;;;85.05;35.40;;;8.30;99.90;;;;;;5070207;28;20036;-55
2020/12/20 05:31:35;;;;;;;92.10;38.58;;;8.30;99.90;;;;;;5071989;28;20518;-53
2020/12/20 05:34:02;;;;;;;88.82;36.30;;;8.30;99.90;;;;;;5070089;28;20032;-54
2020/12/20 05:36:28;;;;;;;86.22;36.65;;;8.30;99.90;;;;;;5071672;28;20577;-56
2020/12/20 05:39:10;;;;;;;94.93;38.13;;;8.30;99.90;;;;;;5071156;28;20064;-58
2020/12/20 05:41:36;;;;;;;88.93;38.72;;;8.30;99.90;;;;;;5068449;28;20082;-53
2020/12/20 05:44:25;;;;;;;90.65;37.80;;;8.30;99.90;;;;;;5065439;28;20512;-53
2020/12/20 05:46:51;;;;;;;93.88;38.95;;;8.30;99.90;;;;;;5051628;28;20064;-56
2020/12/20 05:49:21;;;;;;;91.72;38.10;;;8.30;99.90;;;;;;5052421;28;20120;-55
2020/12/20 05:52:01;;;;;;;85.13;37.40;;;8.30;99.90;;;;;;5071482;28;20031;-57
2020/12/20 05:54:34;;;;;;;85.78;38.83;;;8.30;99.90;;;;;;5070440;28;20032;-56
2020/12/20 05:57:06;;;;;;;91.68;38.15;;;8.30;99.90;;;;;;5071379;28;20036;-55
2020/12/20 05:59:33;;;;;;;92.28;37.50;;;8.30;99.90;;;;;;5070399;28;20036;-52
2020/12/20 06:02:03;;;;;;;87.15;38.75;;;8.30;99.90;;;;;;5068307;28;20040;-56
2020/12/20 06:04:33;;;;;;;88.20;39.75;;;8.30;99.90;;;;;;5070112;28;20041;-55
2020/12/20 06:06:59;;;;;;;85.00;36.17;;;8.30;99.90;;;;;;5069036;28;20047;-55
2020/12/20 06:09:27;;;;;;;89.13;36.65;;;8.30;99.90;;;;;;5051143;28;20056;-57
2020/12/20 06:11:54;;;;;;;81.60;34.65;;;8.30;99.90;;;;;;5051676;28;20029;-55
2020/12/20 06:14:26;;;;;;;83.78;34.38;;;8.30;99.90;;;;;;5069499;28;20135;-51
2020/12/20 06:17:16;;;;;;;80.43;35.95;;;8.30;99.90;;;;;;5066982;28;20084;-58
2020/12/20 06:19:49;;;;;;;78.95;35.65;;;8.30;99.90;;;;;;5045068;28;20076;-54
2020/12/20 06:22:22;;;;;;;75.68;35.97;;;8.30;99.90;;;;;;5051532;28;20048;-53
2020/12/20 06:24:50;;;;;;;73.13;37.58;;;8.30;99.90;;;;;;5051063;28;20037;-55
2020/12/20 06:27:18;;;;;;;79.10;38.58;;;8.30;99.90;;;;;;5052875;28;20037;-55
2020/12/20 06:29:46;;;;;;;76.78;38.78;;;8.30;99.90;;;;;;5070974;28;20032;-55
2020/12/20 06:32:15;;;;;;;79.80;39.38;;;8.20;99.90;;;;;;5069755;28;20062;-53
2020/12/20 06:34:42;;;;;;;84.15;39.10;;;8.20;99.90;;;;;;5070960;28;20028;-54
2020/12/20 06:37:09;;;;;;;78.18;38.17;;;8.20;99.90;;;;;;5069759;28;20033;-56
2020/12/20 06:39:37;;;;;;;79.32;41.08;;;8.20;99.90;;;;;;5050838;28;20040;-56
2020/12/20 06:42:03;;;;;;;82.20;40.33;;;8.20;99.90;;;;;;5050571;28;20040;-55
2020/12/20 06:44:29;;;;;;;74.93;38.95;;;8.20;99.90;;;;;;5067004;28;20032;-49
2020/12/20 06:46:55;;;;;;;71.10;37.30;;;8.20;99.90;;;;;;5070391;28;20052;-55
2020/12/20 06:49:40;;;;;;;72.57;37.72;;;8.20;99.90;;;;;;5068746;28;20030;-52
2020/12/20 06:52:27;;;;;;;64.68;34.15;;;8.30;99.90;;;;;;5070688;28;20120;-55
2020/12/20 06:55:13;;;;;;;76.50;40.30;;;8.30;99.90;;;;;;5070025;28;20040;-53
2020/12/20 06:58:18;;;;;;;78.18;39.17;;;8.20;99.90;;;;;;5068460;28;20040;-57
2020/12/20 07:00:56;;;;;;;76.80;40.33;;;8.20;99.90;;;;;;5027452;28;20085;-57
2020/12/20 07:03:30;;;;;;;79.68;41.33;;;8.30;99.90;;;;;;5026270;28;20134;-52
2020/12/20 07:06:18;;;;;;;82.07;41.28;;;8.20;99.90;;;;;;5027458;28;20044;-55
2020/12/20 07:08:57;;;;;;;81.25;39.63;;;8.20;99.90;;;;;;5026551;28;20052;-58
2020/12/20 07:11:25;;;;;;;75.95;37.95;;;8.20;99.90;;;;;;5010747;28;20045;-57
2020/12/20 07:13:54;;;;;;;78.93;36.65;;;8.20;99.90;;;;;;5022174;28;20044;-58
2020/12/20 07:16:23;;;;;;;71.63;33.78;;;8.30;99.90;;;;;;5026212;28;20501;-54
2020/12/20 07:18:58;;;;;;;76.00;33.50;;;8.30;99.90;;;;;;5027134;28;20190;-55
2020/12/20 07:21:24;;;;;;;69.90;33.15;;;8.30;99.90;;;;;;5026111;28;20037;-53
2020/12/20 07:24:03;;;;;;;72.00;34.85;;;8.30;99.90;;;;;;5026268;28;20503;-53
2020/12/20 07:26:29;;;;;;;73.72;33.70;;;8.40;99.90;;;;;;5026940;28;20045;-53
2020/12/20 07:29:02;;;;;;;73.93;32.13;;;8.40;99.90;;;;;;5026127;28;20037;-55
2020/12/20 07:31:29;;;;;;;74.60;32.10;;;8.40;99.90;;;;;;5037179;28;20040;-58
2020/12/20 07:33:55;;;;;;;77.65;34.50;;;8.40;99.90;;;;;;5039233;28;20857;-54
2020/12/20 07:36:22;;;;;;;71.10;31.95;;;8.40;99.90;;;;;;5043891;28;20033;-54
2020/12/20 07:38:49;;;;;;;67.45;30.88;;;8.40;99.90;;;;;;5048414;28;20110;-54
2020/12/20 07:41:17;;;;;;;71.45;31.63;;;8.40;99.90;;;;;;5048445;28;20050;-58
2020/12/20 07:43:44;;;;;;;80.85;36.67;;;8.40;99.90;;;;;;5048078;28;20354;-58
2020/12/20 07:46:11;;;;;;;79.22;38.63;;;8.40;99.90;;;;;;5044767;28;20071;-52
2020/12/20 07:48:38;;;;;;;82.20;41.25;;;8.40;99.90;;;;;;5048058;28;20493;-54
2020/12/20 07:51:19;;;;;;;76.82;40.80;;;8.40;99.90;;;;;;5048650;28;20059;-57
2020/12/20 07:53:49;;;;;;;83.47;44.30;;;8.40;99.90;;;;;;5048145;28;20419;-53
2020/12/20 07:56:32;;;;;;;82.35;43.65;;;8.50;99.90;;;;;;5046836;28;20037;-55
2020/12/20 07:59:02;;;;;;;77.28;41.35;;;8.40;99.90;;;;;;5049193;28;20501;-58
2020/12/20 08:01:28;;;;;;;81.68;42.35;;;8.50;99.90;;;;;;5047701;28;20032;-58
2020/12/20 08:04:08;;;;;;;83.22;42.72;;;8.50;99.90;;;;;;5063553;28;20080;-56
2020/12/20 08:06:42;;;;;;;77.03;40.85;;;8.50;99.90;;;;;;5065343;28;20150;-56
2020/12/20 08:09:16;;;;;;;77.20;40.95;;;8.50;99.90;;;;;;5064343;28;20082;-55
2020/12/20 08:11:43;;;;;;;76.57;41.50;;;8.60;99.90;;;;;;5069014;28;20044;-49
2020/12/20 08:14:11;;;;;;;75.50;42.00;;;8.60;99.90;;;;;;5065085;28;20021;-52
2020/12/20 08:16:39;;;;;;;72.75;40.35;;;8.60;99.90;;;;;;5066084;28;20395;-54
2020/12/20 08:19:19;;;;;;;76.38;40.05;;;8.60;99.90;;;;;;5068193;28;20024;-55
2020/12/20 08:22:05;;;;;;;76.25;41.00;;;8.60;99.90;;;;;;5063717;28;20123;-53
2020/12/20 08:24:47;;;;;;;77.97;41.10;;;8.60;99.90;;;;;;5048775;28;20132;-48
2020/12/20 08:27:14;;;;;;;91.68;44.78;;;8.60;99.90;;;;;;5051512;28;20480;-51
2020/12/20 08:29:40;;;;;;;86.38;42.78;;;8.60;99.90;;;;;;5068442;28;20036;-56
2020/12/20 08:32:11;;;;;;;80.28;41.65;;;8.70;99.90;;;;;;5066813;28;20039;-53
2020/12/20 08:34:37;;;;;;;75.55;40.80;;;8.60;99.90;;;;;;5068574;28;20035;-51
2020/12/20 08:37:09;;;;;;;77.53;37.75;;;8.70;99.90;;;;;;5065284;28;20028;-56
2020/12/20 08:39:34;;;;;;;75.10;37.50;;;8.70;99.90;;;;;;5066546;28;20098;-57
2020/12/20 08:42:09;;;;;;;76.05;37.03;;;8.70;99.90;;;;;;5068677;28;20407;-55
2020/12/20 08:44:36;;;;;;;68.18;36.75;;;8.70;99.90;;;;;;5068008;28;20036;-56
2020/12/20 08:47:14;;;;;;;71.72;40.08;;;8.80;99.90;;;;;;5050267;28;20084;-55
2020/12/20 08:49:54;;;;;;;75.70;38.70;;;8.90;99.90;;;;;;5065436;28;20561;-55
2020/12/20 08:52:20;;;;;;;74.75;41.28;;;8.90;99.90;;;;;;5062729;28;20063;-54
2020/12/20 08:54:50;;;;;;;71.30;40.53;;;8.90;99.90;;;;;;5049056;28;20104;-58
2020/12/20 08:57:17;;;;;;;74.88;38.90;;;8.90;99.90;;;;;;5030527;28;20424;-55
2020/12/20 08:59:44;;;;;;;75.60;40.45;;;8.90;99.90;;;;;;5063036;28;20388;-56
2020/12/20 09:02:22;;;;;;;74.70;40.33;;;8.90;99.90;;;;;;5067936;28;20222;-53
2020/12/20 09:05:01;;;;;;;74.57;36.72;;;8.80;99.90;;;;;;5056308;28;20044;-58
2020/12/20 09:07:38;;;;;;;70.43;37.95;;;8.90;99.90;;;;;;5048802;28;20068;-55
2020/12/20 09:10:11;;;;;;;73.95;38.08;;;8.90;99.90;;;;;;5065243;28;20341;-58
2020/12/20 09:12:45;;;;;;;72.00;37.60;;;8.80;99.90;;;;;;5066076;28;20119;-55
2020/12/20 09:15:14;;;;;;;76.60;39.20;;;8.80;99.90;;;;;;5068235;28;20032;-55
2020/12/20 09:17:45;;;;;;;68.28;37.60;;;8.90;99.90;;;;;;5065710;28;20032;-54
2020/12/20 09:20:12;;;;;;;64.00;34.92;;;8.90;99.90;;;;;;5068253;28;20082;-54
2020/12/20 09:22:50;;;;;;;69.78;36.20;;;8.90;99.90;;;;;;5065293;28;20082;-56
2020/12/20 09:25:29;;;;;;;67.97;35.13;;;8.90;99.90;;;;;;5055975;28;20535;-55
2020/12/20 09:27:58;;;;;;;61.08;33.70;;;8.90;99.90;;;;;;5051250;28;20488;-56
2020/12/20 09:30:46;;;;;;;64.40;33.13;;;9.00;99.90;;;;;;5066697;28;20048;-54
2020/12/20 09:33:36;;;;;;;62.63;32.65;;;9.00;99.90;;;;;;5048828;28;20736;-58
2020/12/20 09:36:02;;;;;;;73.10;39.40;;;9.00;99.90;;;;;;5030167;28;20610;-54
2020/12/20 09:38:30;;;;;;;74.22;40.40;;;9.00;99.90;;;;;;5062078;28;20119;-55
2020/12/20 09:40:58;;;;;;;73.05;38.25;;;9.00;99.90;;;;;;5063450;28;20086;-56
2020/12/20 09:43:24;;;;;;;76.45;39.97;;;9.10;99.90;;;;;;5059943;28;20493;-54
2020/12/20 09:45:50;;;;;;;72.13;38.60;;;9.10;99.90;;;;;;5047797;28;20041;-52
2020/12/20 09:48:16;;;;;;;73.50;40.42;;;9.00;99.90;;;;;;5060279;28;20024;-55
2020/12/20 09:50:42;;;;;;;68.97;38.10;;;9.00;99.90;;;;;;5059308;28;20150;-52
2020/12/20 09:53:07;;;;;;;76.65;38.97;;;9.00;99.90;;;;;;5062295;28;20103;-52
2020/12/20 09:55:33;;;;;;;76.28;40.15;;;9.00;99.90;;;;;;5062017;28;20488;-58
2020/12/20 09:57:59;;;;;;;67.50;36.85;;;9.00;99.90;;;;;;5066697;28;20052;-55
2020/12/20 10:00:25;;;;;;;73.18;40.25;;;9.10;99.90;;;;;;5069565;28;20034;-54
2020/12/20 10:02:50;;;;;;;76.13;38.75;;;9.10;99.90;;;;;;5064714;28;20079;-53
2020/12/20 10:05:16;;;;;;;73.70;37.75;;;9.00;99.90;;;;;;5071666;28;20557;-53
2020/12/20 10:07:42;;;;;;;71.57;38.50;;;9.00;99.90;;;;;;5051513;28;20067;-57
2020/12/20 10:10:08;;;;;;;70.38;37.50;;;9.10;99.90;;;;;;5062676;28;20037;-54
2020/12/20 10:12:35;;;;;;;62.00;32.33;;;9.10;99.90;;;;;;5065912;28;20040;-51
2020/12/20 10:15:01;;;;;;;67.78;31.95;;;9.00;99.90;;;;;;5063417;28;20307;-55
2020/12/20 10:17:27;;;;;;;58.22;29.00;;;9.00;99.90;;;;;;5056566;28;20029;-58
2020/12/20 10:19:53;;;;;;;53.90;27.88;;;9.00;99.90;;;;;;5047917;28;20496;-51
2020/12/20 10:22:19;;;;;;;56.55;28.52;;;9.00;99.90;;;;;;5041997;28;20044;-53
2020/12/20 10:24:45;;;;;;;54.35;26.60;;;9.10;99.90;;;;;;5065376;28;20032;-55
2020/12/20 10:27:11;;;;;;;48.95;25.35;;;9.10;99.90;;;;;;5056910;28;20037;-54
2020/12/20 10:29:37;;;;;;;50.03;26.52;;;9.10;99.90;;;;;;5067480;28;20028;-55
2020/12/20 10:32:03;;;;;;;46.80;23.42;;;9.10;99.90;;;;;;5061839;28;20056;-50
2020/12/20 10:34:29;;;;;;;49.80;23.38;;;9.00;99.90;;;;;;5061750;28;20439;-55
2020/12/20 10:36:55;;;;;;;58.80;27.02;;;9.10;99.90;;;;;;5051107;28;20040;-49
2020/12/20 10:39:21;;;;;;;46.60;22.90;;;9.10;99.90;;;;;;5057840;28;20400;-56
2020/12/20 10:41:52;;;;;;;47.63;23.23;;;9.10;99.90;;;;;;5060489;28;20112;-58
2020/12/20 10:44:20;;;;;;;46.70;23.35;;;9.10;99.90;;;;;;5064336;28;20146;-56
2020/12/20 10:46:50;;;;;;;48.33;23.88;;;9.10;99.90;;;;;;5066713;28;20040;-54
2020/12/20 10:49:16;;;;;;;48.35;23.75;;;9.10;99.90;;;;;;5070057;28;20048;-53
2020/12/20 10:51:42;;;;;;;49.50;24.80;;;9.10;99.90;;;;;;5059014;28;20115;-50
2020/12/20 10:54:07;;;;;;;51.20;23.88;;;9.10;99.90;;;;;;5054888;28;20124;-55
2020/12/20 10:56:33;;;;;;;46.72;23.83;;;9.10;99.90;;;;;;5058516;28;20055;-47
2020/12/20 10:58:59;;;;;;;42.60;22.80;;;9.10;99.90;;;;;;5070508;28;20606;-52
2020/12/20 11:01:25;;;;;;;46.83;22.00;;;9.20;99.90;;;;;;5057620;28;20033;-51
2020/12/20 11:03:51;;;;;;;50.97;24.17;;;9.20;99.90;;;;;;5054243;28;20412;-53
2020/12/20 11:06:24;;;;;;;46.85;23.65;;;9.20;99.90;;;;;;5054732;28;20369;-54
2020/12/20 11:08:50;;;;;;;45.65;24.15;;;9.30;99.90;;;;;;5061177;28;20538;-50
2020/12/20 11:11:17;;;;;;;41.65;22.70;;;9.20;99.90;;;;;;5062343;28;20041;-56
2020/12/20 11:13:44;;;;;;;39.38;20.85;;;9.30;99.90;;;;;;5053685;28;20039;-54
2020/12/20 11:16:18;;;;;;;41.65;20.85;;;9.30;99.90;;;;;;5066646;28;20028;-53
2020/12/20 11:18:46;;;;;;;43.13;22.88;;;9.20;99.90;;;;;;5061654;28;20024;-51
2020/12/20 11:21:13;;;;;;;42.38;21.35;;;9.30;99.90;;;;;;5054499;28;20135;-50
2020/12/20 11:23:40;;;;;;;60.47;35.35;;;9.30;99.90;;;;;;5062407;28;20040;-56
2020/12/20 11:26:16;;;;;;;52.67;28.40;;;9.30;99.90;;;;;;5049412;28;20044;-56
2020/12/20 11:28:43;;;;;;;50.67;26.73;;;9.30;99.90;;;;;;5049833;28;20488;-54
2020/12/20 11:31:20;;;;;;;44.25;24.83;;;9.20;99.90;;;;;;5053647;28;20491;-53
2020/12/20 11:33:46;;;;;;;41.40;23.33;;;9.30;99.90;;;;;;5050012;28;20411;-53
2020/12/20 11:36:24;;;;;;;41.67;22.58;;;9.30;99.90;;;;;;5053196;28;20133;-51
2020/12/20 11:38:51;;;;;;;39.42;20.35;;;9.30;99.90;;;;;;5068176;28;20024;-52
2020/12/20 11:41:24;;;;;;;42.28;21.00;;;9.30;99.90;;;;;;5049478;28;20032;-52
2020/12/20 11:43:51;;;;;;;41.72;20.05;;;9.40;99.90;;;;;;5049659;28;20512;-53
2020/12/20 11:46:17;;;;;;;42.85;20.45;;;9.50;99.90;;;;;;5057317;28;20043;-53
2020/12/20 11:48:44;;;;;;;41.88;20.80;;;9.50;99.90;;;;;;5051440;28;20025;-50
2020/12/20 11:51:14;;;;;;;44.15;21.38;;;9.50;99.90;;;;;;5062549;28;20147;-55
2020/12/20 11:53:40;;;;;;;48.60;20.83;;;9.50;99.90;;;;;;5058717;28;20650;-56
2020/12/20 11:56:07;;;;;;;44.78;22.58;;;9.50;99.90;;;;;;5061743;28;21637;-52
2020/12/20 11:58:32;;;;;;;39.90;20.60;;;9.50;99.90;;;;;;5059271;28;20078;-55
2020/12/20 12:00:59;;;;;;;34.92;19.45;;;9.40;99.90;;;;;;5059117;28;20037;-53
2020/12/20 12:03:25;;;;;;;38.97;20.85;;;9.40;99.90;;;;;;5051406;28;20057;-64
2020/12/20 12:05:50;;;;;;;42.90;23.05;;;9.50;99.90;;;;;;5040594;28;20064;-54
2020/12/20 12:08:16;;;;;;;40.80;21.38;;;9.50;99.90;;;;;;5055356;28;20571;-55
2020/12/20 12:10:45;;;;;;;41.45;22.08;;;9.60;99.90;;;;;;5053072;28;20073;-53
2020/12/20 12:13:11;;;;;;;39.55;20.80;;;9.60;99.90;;;;;;5063609;28;20044;-56
2020/12/20 12:15:37;;;;;;;42.40;21.63;;;9.60;99.90;;;;;;5065314;28;20035;-55
2020/12/20 12:18:04;;;;;;;44.65;23.05;;;9.60;99.90;;;;;;5059080;28;20039;-52
2020/12/20 12:20:30;;;;;;;39.92;21.50;;;9.60;99.90;;;;;;5064974;28;20078;-51
2020/12/20 12:22:55;;;;;;;37.05;20.27;;;9.60;99.90;;;;;;5059830;28;20040;-53
2020/12/20 12:25:21;;;;;;;39.67;19.70;;;9.50;99.90;;;;;;5065728;28;20372;-54
2020/12/20 12:27:47;;;;;;;38.63;20.35;;;9.50;99.90;;;;;;5064264;28;20037;-56
2020/12/20 12:30:13;;;;;;;38.40;19.85;;;9.50;99.90;;;;;;5057997;28;20403;-55
2020/12/20 12:32:39;;;;;;;33.25;18.70;;;9.50;99.90;;;;;;5064730;28;20040;-51
2020/12/20 12:35:06;;;;;;;37.28;19.75;;;9.60;99.90;;;;;;5057231;28;20479;-54
2020/12/20 12:37:32;;;;;;;37.13;19.70;;;9.60;99.90;;;;;;5052621;28;20133;-57
2020/12/20 12:39:58;;;;;;;41.67;19.98;;;9.60;99.90;;;;;;5058443;28;20043;-54
2020/12/20 12:42:24;;;;;;;31.73;18.60;;;9.60;99.90;;;;;;5062007;28;20041;-54
2020/12/20 12:44:50;;;;;;;33.17;19.88;;;9.60;99.90;;;;;;5055392;28;20040;-53